createdAt,value
2019-02-10T00:01:53.773Z,25.40
2019-02-10T00:04:25.030Z,24.73
2019-02-10T00:06:58.826Z,22.07
2019-02-10T00:09:34.432Z,19.17
2019-02-10T00:12:08.157Z,24.00
2019-02-10T00:14:40.360Z,22.57
2019-02-10T00:17:13.680Z,23.35
2019-02-10T00:19:46.852Z,20.63
2019-02-10T00:22:20.741Z,24.90
2019-02-10T00:24:53.946Z,19.53
2019-02-10T00:27:27.941Z,21.00
2019-02-10T00:29:59.206Z,24.43
2019-02-10T00:32:35.511Z,20.00
2019-02-10T00:35:06.966Z,23.30
2019-02-10T00:37:41.277Z,20.63
2019-02-10T00:40:13.912Z,22.27
2019-02-10T00:42:46.983Z,23.10
2019-02-10T00:45:19.876Z,23.45
2019-02-10T00:47:51.268Z,29.53
2019-02-10T00:50:25.337Z,20.50
2019-02-10T00:52:58.946Z,22.80
2019-02-10T00:55:33.022Z,18.60
2019-02-10T00:58:07.041Z,17.30
2019-02-10T01:00:38.309Z,21.97
2019-02-10T01:03:12.758Z,24.07
2019-02-10T01:05:45.937Z,25.50
2019-02-10T01:08:19.934Z,27.73
2019-02-10T01:10:51.621Z,24.70
2019-02-10T01:13:25.278Z,19.27
2019-02-10T01:15:58.185Z,23.63
2019-02-10T01:18:31.696Z,19.97
2019-02-10T01:21:03.771Z,21.33
2019-02-10T01:23:35.188Z,24.07
2019-02-10T01:26:08.174Z,21.33
2019-02-10T01:28:40.651Z,16.83
2019-02-10T01:31:13.148Z,21.93
2019-02-10T01:33:44.411Z,22.50
2019-02-10T01:36:18.196Z,19.60
2019-02-10T01:38:51.161Z,19.63
2019-02-10T01:41:23.376Z,19.77
2019-02-10T01:43:57.253Z,17.90
2019-02-10T01:46:28.524Z,24.97
2019-02-10T01:49:02.320Z,18.12
2019-02-10T01:51:36.301Z,17.10
2019-02-10T01:54:10.346Z,18.17
2019-02-10T01:56:46.927Z,24.73
2019-02-10T01:59:18.779Z,20.95
2019-02-10T02:01:52.385Z,20.68
2019-02-10T02:04:24.483Z,16.53
2019-02-10T02:06:57.805Z,19.33
2019-02-10T02:09:30.463Z,21.70
2019-02-10T02:12:04.524Z,19.77
2019-02-10T02:14:38.473Z,25.33
2019-02-10T02:17:09.835Z,23.20
2019-02-10T02:19:41.113Z,22.90
2019-02-10T02:22:14.527Z,21.80
2019-02-10T02:24:48.532Z,21.57
2019-02-10T02:27:22.618Z,20.35
2019-02-10T02:29:56.564Z,26.50
2019-02-10T02:32:30.357Z,23.20
2019-02-10T02:35:01.650Z,19.80
2019-02-10T02:37:35.713Z,19.20
2019-02-10T02:40:11.229Z,24.60
2019-02-10T02:42:43.442Z,23.37
2019-02-10T02:45:14.774Z,27.73
2019-02-10T02:47:46.479Z,20.53
2019-02-10T02:50:18.490Z,24.10
2019-02-10T02:52:52.505Z,27.20
2019-02-10T02:55:23.772Z,28.62
2019-02-10T02:57:59.249Z,24.57
2019-02-10T03:00:31.683Z,23.00
2019-02-10T03:03:06.198Z,26.07
2019-02-10T03:05:39.672Z,23.10
2019-02-10T03:08:13.530Z,26.70
2019-02-10T03:10:45.856Z,22.90
2019-02-10T03:13:18.655Z,22.75
2019-02-10T03:15:51.768Z,25.60
2019-02-10T03:18:25.758Z,24.37
2019-02-10T03:20:59.851Z,24.43
2019-02-10T03:23:33.783Z,30.47
2019-02-10T03:26:05.167Z,20.47
2019-02-10T03:28:36.877Z,28.53
2019-02-10T03:31:09.729Z,22.00
2019-02-10T03:33:41.044Z,27.30
2019-02-10T03:36:14.814Z,20.50
2019-02-10T03:38:46.673Z,97.37
2019-02-10T03:41:19.858Z,77.03
2019-02-10T03:43:53.881Z,35.30
2019-02-10T03:46:29.400Z,35.50
2019-02-10T03:49:01.802Z,24.63
2019-02-10T03:51:36.062Z,26.77
2019-02-10T03:54:07.786Z,36.67
2019-02-10T03:56:40.604Z,30.77
2019-02-10T03:59:13.010Z,45.57
2019-02-10T04:01:46.933Z,48.60
2019-02-10T04:04:19.609Z,49.83
2019-02-10T04:06:50.928Z,37.73
2019-02-10T04:09:26.412Z,36.13
2019-02-10T04:11:58.898Z,31.13
2019-02-10T04:14:30.179Z,29.02
2019-02-10T04:17:01.460Z,27.27
2019-02-10T04:19:33.854Z,30.00
2019-02-10T04:22:09.544Z,24.37
2019-02-10T04:24:40.987Z,30.90
2019-02-10T04:27:13.625Z,25.90
2019-02-10T04:29:47.036Z,24.03
2019-02-10T04:32:22.567Z,22.73
2019-02-10T04:34:54.947Z,13.70
2019-02-10T04:37:30.571Z,15.83
2019-02-10T04:40:02.990Z,17.77
2019-02-10T04:42:34.510Z,19.20
2019-02-10T04:45:06.167Z,22.53
2019-02-10T04:47:40.445Z,20.00
2019-02-10T04:50:13.142Z,16.43
2019-02-10T04:52:48.629Z,15.08
2019-02-10T04:55:21.109Z,23.73
2019-02-10T04:57:53.059Z,19.50
2019-02-10T05:00:26.073Z,23.30
2019-02-10T05:02:57.465Z,18.90
2019-02-10T05:05:28.791Z,29.43
2019-02-10T05:08:02.127Z,23.60
2019-02-10T05:10:34.199Z,28.83
2019-02-10T05:13:07.375Z,21.43
2019-02-10T05:15:40.086Z,28.10
2019-02-10T05:18:15.721Z,22.30
2019-02-10T05:20:48.195Z,18.90
2019-02-10T05:23:19.439Z,18.82
2019-02-10T05:25:50.760Z,23.93
2019-02-10T05:28:22.496Z,23.50
2019-02-10T05:30:54.121Z,23.13
2019-02-10T05:33:28.307Z,23.93
2019-02-10T05:36:02.386Z,20.40
2019-02-10T05:38:35.395Z,20.27
2019-02-10T05:41:07.496Z,23.38
2019-02-10T05:43:41.078Z,18.70
2019-02-10T05:46:14.381Z,18.53
2019-02-10T05:48:47.420Z,37.50
2019-02-10T05:51:19.336Z,41.90
2019-02-10T05:53:53.438Z,39.97
2019-02-10T05:56:27.348Z,27.23
2019-02-10T05:59:01.374Z,32.27
2019-02-10T06:02:05.233Z,23.38
2019-02-10T06:04:41.853Z,25.00
2019-02-10T06:07:16.642Z,26.20
2019-02-10T06:09:50.388Z,32.30
2019-02-10T06:12:24.412Z,23.00
2019-02-10T06:14:55.676Z,24.03
2019-02-10T06:17:29.443Z,26.87
2019-02-10T06:20:05.238Z,28.53
2019-02-10T06:22:37.500Z,35.20
2019-02-10T06:25:12.125Z,23.57
2019-02-10T06:27:44.473Z,26.50
2019-02-10T06:30:16.301Z,27.20
2019-02-10T06:32:47.578Z,30.40
2019-02-10T06:35:20.638Z,32.43
2019-02-10T06:37:56.175Z,25.40
2019-02-10T06:40:29.601Z,21.90
2019-02-10T06:43:03.664Z,22.40
2019-02-10T06:45:37.342Z,22.73
2019-02-10T06:48:08.623Z,27.13
2019-02-10T06:50:40.896Z,26.90
2019-02-10T06:53:12.530Z,30.13
2019-02-10T06:55:44.835Z,42.93
2019-02-10T06:58:17.678Z,47.70
2019-02-10T07:00:59.296Z,38.35
2019-02-10T07:03:55.355Z,33.65
2019-02-10T07:06:26.847Z,40.65
2019-02-10T07:09:02.445Z,35.03
2019-02-10T07:11:34.668Z,37.83
2019-02-10T07:14:18.443Z,41.07
2019-02-10T07:17:23.314Z,39.20
2019-02-10T07:20:52.217Z,29.07
2019-02-10T07:24:07.224Z,35.80
2019-02-10T07:26:55.145Z,33.93
2019-02-10T07:29:58.389Z,31.47
2019-02-10T07:32:38.874Z,27.47
2019-02-10T07:35:31.307Z,28.43
2019-02-10T07:38:17.016Z,28.75
2019-02-10T07:41:30.767Z,33.53
2019-02-10T07:44:56.993Z,28.83
2019-02-10T07:47:55.793Z,35.20
2019-02-10T07:51:17.877Z,33.40
2019-02-10T07:54:56.302Z,28.50
2019-02-10T07:58:02.501Z,28.35
2019-02-10T08:01:11.548Z,28.45
2019-02-10T08:04:27.685Z,28.77
2019-02-10T08:07:38.916Z,21.87
2019-02-10T08:10:29.411Z,24.17
2019-02-10T08:13:41.007Z,23.60
2019-02-10T08:16:39.177Z,16.43
2019-02-10T08:19:23.215Z,21.97
2019-02-10T08:22:51.400Z,16.33
2019-02-10T08:25:53.481Z,26.27
2019-02-10T08:29:01.854Z,23.00
2019-02-10T08:32:31.561Z,17.83
2019-02-10T08:35:44.331Z,11.60
2019-02-10T08:38:59.217Z,10.47
2019-02-10T08:42:22.084Z,14.60
2019-02-10T08:45:37.939Z,17.50
2019-02-10T08:48:51.594Z,19.07
2019-02-10T08:52:19.766Z,21.30
2019-02-10T08:54:53.077Z,24.33
2019-02-10T08:57:26.908Z,23.47
2019-02-10T08:59:58.174Z,27.93
2019-02-10T09:02:31.628Z,24.20
2019-02-10T09:05:05.853Z,24.43
2019-02-10T09:07:40.830Z,20.37
2019-02-10T09:10:13.413Z,21.17
2019-02-10T09:12:47.138Z,22.87
2019-02-10T09:15:18.923Z,22.80
2019-02-10T09:17:53.766Z,22.37
2019-02-10T09:20:27.669Z,22.63
2019-02-10T09:22:59.184Z,23.10
2019-02-10T09:25:33.386Z,26.60
2019-02-10T09:28:07.016Z,26.20
2019-02-10T09:30:42.037Z,27.67
2019-02-10T09:33:14.402Z,30.90
2019-02-10T09:35:47.407Z,29.87
2019-02-10T09:38:19.383Z,29.37
2019-02-10T09:40:52.448Z,35.23
2019-02-10T09:43:26.467Z,34.35
2019-02-10T09:46:02.115Z,36.20
2019-02-10T09:48:33.400Z,35.20
2019-02-10T09:51:05.430Z,34.83
2019-02-10T09:53:38.317Z,36.73
2019-02-10T09:56:10.690Z,33.90
2019-02-10T09:58:44.505Z,37.57
2019-02-10T10:01:16.546Z,38.80
2019-02-10T10:03:50.107Z,43.43
2019-02-10T10:06:22.764Z,42.80
2019-02-10T10:08:55.525Z,52.63
2019-02-10T10:11:28.506Z,61.07
2019-02-10T10:14:04.228Z,56.07
2019-02-10T10:16:36.560Z,55.92
2019-02-10T10:19:12.525Z,58.50
2019-02-10T10:21:44.542Z,55.17
2019-02-10T10:24:17.648Z,55.43
2019-02-10T10:26:51.510Z,56.30
2019-02-10T10:29:24.543Z,53.97
2019-02-10T10:31:55.829Z,57.40
2019-02-10T10:34:29.753Z,57.97
2019-02-10T10:37:05.352Z,52.77
2019-02-10T10:39:39.563Z,51.53
2019-02-10T10:42:13.743Z,55.27
2019-02-10T10:44:44.997Z,53.43
2019-02-10T10:47:18.829Z,53.28
2019-02-10T10:49:51.717Z,52.30
2019-02-10T10:52:24.730Z,52.83
2019-02-10T10:54:56.762Z,59.90
2019-02-10T10:57:29.745Z,55.97
2019-02-10T11:00:02.926Z,63.10
2019-02-10T11:02:34.859Z,67.13
2019-02-10T11:05:09.417Z,66.27
2019-02-10T11:07:41.239Z,61.30
2019-02-10T11:10:13.338Z,68.60
2019-02-10T11:12:44.729Z,65.47
2019-02-10T11:15:18.141Z,61.95
2019-02-10T11:17:49.401Z,70.08
2019-02-10T11:20:22.335Z,62.13
2019-02-10T11:22:53.972Z,71.17
2019-02-10T11:25:25.750Z,66.63
2019-02-10T11:27:57.046Z,57.93
2019-02-10T11:30:30.885Z,70.87
2019-02-10T11:33:03.820Z,72.50
2019-02-10T11:35:38.036Z,77.90
2019-02-10T11:38:11.920Z,71.60
2019-02-10T11:40:44.933Z,71.77
2019-02-10T11:43:16.458Z,77.25
2019-02-10T11:45:49.805Z,72.10
2019-02-10T11:48:21.081Z,61.97
2019-02-10T11:50:55.046Z,64.00
2019-02-10T11:53:28.960Z,60.03
2019-02-10T11:56:01.889Z,58.87
2019-02-10T11:58:35.138Z,65.17
2019-02-10T12:01:06.414Z,57.80
2019-02-10T12:03:37.733Z,61.93
2019-02-10T12:06:12.584Z,62.93
2019-02-10T12:08:44.961Z,59.90
2019-02-10T12:11:16.244Z,56.63
2019-02-10T12:13:47.891Z,63.80
2019-02-10T12:16:20.962Z,59.00
2019-02-10T12:18:54.309Z,54.23
2019-02-10T12:21:27.128Z,58.48
2019-02-10T12:23:58.671Z,54.83
2019-02-10T12:26:29.937Z,51.03
2019-02-10T12:29:03.070Z,51.47
2019-02-10T12:31:37.605Z,50.77
2019-02-10T12:34:11.133Z,51.87
2019-02-10T12:36:45.041Z,50.27
2019-02-10T12:39:18.211Z,48.87
2019-02-10T12:41:49.532Z,42.50
2019-02-10T12:44:20.799Z,49.57
2019-02-10T12:46:54.210Z,45.77
2019-02-10T12:49:27.069Z,48.93
2019-02-10T12:51:58.355Z,43.90
2019-02-10T12:54:31.155Z,46.30
2019-02-10T12:57:03.220Z,47.40
2019-02-10T12:59:38.787Z,47.40
2019-02-10T13:02:10.683Z,47.40
2019-02-10T13:04:41.944Z,52.53
2019-02-10T13:07:15.281Z,50.67
2019-02-10T13:09:46.662Z,51.17
2019-02-10T13:12:20.327Z,49.50
2019-02-10T13:14:55.035Z,55.97
2019-02-10T13:17:29.789Z,49.20
2019-02-10T13:20:04.009Z,45.80
2019-02-10T13:22:35.346Z,53.60
2019-02-10T13:25:11.410Z,52.50
2019-02-10T13:27:46.119Z,52.63
2019-02-10T13:30:18.489Z,59.10
2019-02-10T13:32:50.657Z,56.30
2019-02-10T13:35:24.503Z,61.48
2019-02-10T13:37:58.394Z,56.17
2019-02-10T13:40:31.402Z,54.13
2019-02-10T13:43:05.410Z,55.17
2019-02-10T13:45:39.505Z,60.10
2019-02-10T13:48:10.779Z,53.07
2019-02-10T13:50:42.080Z,52.87
2019-02-10T13:53:15.234Z,60.30
2019-02-10T13:55:48.548Z,59.87
2019-02-10T13:58:24.078Z,56.90
2019-02-10T14:00:55.474Z,61.30
2019-02-10T14:03:29.471Z,57.70
2019-02-10T14:06:01.121Z,62.70
2019-02-10T14:08:34.556Z,58.20
2019-02-10T14:11:08.582Z,68.30
2019-02-10T14:13:40.605Z,66.67
2019-02-10T14:16:13.642Z,67.07
2019-02-10T14:18:46.595Z,66.50
2019-02-10T14:21:20.498Z,66.93
2019-02-10T14:23:51.963Z,74.50
2019-02-10T14:26:23.263Z,64.20
2019-02-10T14:28:56.689Z,72.47
2019-02-10T14:31:30.594Z,72.70
2019-02-10T14:34:04.561Z,77.63
2019-02-10T14:36:37.719Z,73.40
2019-02-10T14:39:11.609Z,78.53
2019-02-10T14:41:45.699Z,77.80
2019-02-10T14:44:18.713Z,79.20
2019-02-10T14:46:52.666Z,75.63
2019-02-10T14:49:28.321Z,84.30
2019-02-10T14:52:00.766Z,81.12
2019-02-10T14:54:35.585Z,84.67
2019-02-10T14:57:07.919Z,78.27
2019-02-10T14:59:41.565Z,78.67
2019-02-10T15:02:12.896Z,77.67
2019-02-10T15:04:44.832Z,85.73
2019-02-10T15:07:25.307Z,83.80
2019-02-10T15:09:50.833Z,86.27
2019-02-10T15:12:22.164Z,87.83
2019-02-10T15:14:55.870Z,93.60
2019-02-10T15:17:27.163Z,84.47
2019-02-10T15:20:00.816Z,95.13
2019-02-10T15:22:33.801Z,82.60
2019-02-10T15:25:07.244Z,104.20
2019-02-10T15:27:38.871Z,95.97
2019-02-10T15:30:12.562Z,89.70
2019-02-10T15:32:45.847Z,87.93
2019-02-10T15:35:19.879Z,91.22
2019-02-10T15:37:52.853Z,79.47
2019-02-10T15:40:24.913Z,90.87
2019-02-10T15:42:58.831Z,109.63
2019-02-10T15:45:32.016Z,98.43
2019-02-10T15:48:03.262Z,96.50
2019-02-10T15:50:37.027Z,91.23
2019-02-10T15:53:10.908Z,92.30
2019-02-10T15:55:42.181Z,92.43
2019-02-10T15:58:14.911Z,97.10
2019-02-10T16:00:48.052Z,94.83
2019-02-10T16:03:21.900Z,107.73
2019-02-10T16:05:53.987Z,105.83
2019-02-10T16:08:27.043Z,91.70
2019-02-10T16:10:59.178Z,101.67
2019-02-10T16:13:32.115Z,107.93
2019-02-10T16:16:06.118Z,109.03
2019-02-10T16:18:39.006Z,103.90
2019-02-10T16:21:11.068Z,97.77
2019-02-10T16:23:42.365Z,106.93
2019-02-10T16:26:15.001Z,95.53
2019-02-10T16:28:46.288Z,119.33
2019-02-10T16:31:20.282Z,135.15
2019-02-10T16:33:53.139Z,108.40
2019-02-10T16:36:27.164Z,119.77
2019-02-10T16:39:01.531Z,110.07
2019-02-10T16:41:35.186Z,122.70
2019-02-10T16:44:09.263Z,115.40
2019-02-10T16:46:41.546Z,132.70
2019-02-10T16:49:13.164Z,116.90
2019-02-10T16:51:45.438Z,119.20
2019-02-10T16:54:18.278Z,113.30
2019-02-10T16:56:54.183Z,114.43
2019-02-10T16:59:25.900Z,125.60
2019-02-10T17:01:59.396Z,131.47
2019-02-10T17:04:33.313Z,123.13
2019-02-10T17:07:09.126Z,114.85
2019-02-10T17:09:41.683Z,123.17
2019-02-10T17:12:14.410Z,119.82
2019-02-10T17:14:45.756Z,114.47
2019-02-10T17:17:17.118Z,104.90
2019-02-10T17:19:50.439Z,121.03
2019-02-10T17:22:24.003Z,125.77
2019-02-10T17:24:57.418Z,132.10
2019-02-10T17:27:30.529Z,117.65
2019-02-10T17:30:02.474Z,139.17
2019-02-10T17:32:36.563Z,156.57
2019-02-10T17:35:10.848Z,122.15
2019-02-10T17:37:42.227Z,115.03
2019-02-10T17:40:18.496Z,167.07
2019-02-10T17:42:50.659Z,148.53
2019-02-10T17:45:24.496Z,165.95
2019-02-10T17:47:55.946Z,144.90
2019-02-10T17:50:27.285Z,130.23
2019-02-10T17:53:00.613Z,131.33
2019-02-10T17:55:34.604Z,124.50
2019-02-10T17:58:08.661Z,131.45
2019-02-10T18:00:45.553Z,127.75
2019-02-10T18:03:19.752Z,126.95
2019-02-10T18:05:53.775Z,132.33
2019-02-10T18:08:26.617Z,127.85
2019-02-10T18:11:02.349Z,125.33
2019-02-10T18:13:34.614Z,116.82
2019-02-10T18:16:31.933Z,122.23
2019-02-10T18:19:16.915Z,126.73
2019-02-10T18:22:06.478Z,117.37
2019-02-10T18:25:09.136Z,126.27
2019-02-10T18:28:01.215Z,127.83
2019-02-10T18:30:42.804Z,129.38
2019-02-10T18:33:37.740Z,124.80
2019-02-10T18:36:36.100Z,126.90
2019-02-10T18:39:15.519Z,133.80
2019-02-10T18:42:06.598Z,121.60
2019-02-10T18:45:07.316Z,131.20
2019-02-10T18:48:01.091Z,129.33
2019-02-10T18:50:54.119Z,128.23
2019-02-10T18:53:38.230Z,131.67
2019-02-10T18:56:19.625Z,122.73
2019-02-10T18:59:00.348Z,137.83
2019-02-10T19:01:40.583Z,138.62
2019-02-10T19:04:30.600Z,133.33
2019-02-10T19:07:32.839Z,136.83
2019-02-10T19:10:17.476Z,133.27
2019-02-10T19:13:16.021Z,134.07
2019-02-10T19:16:05.644Z,150.30
2019-02-10T19:18:51.529Z,133.97
2019-02-10T19:21:46.435Z,140.47
2019-02-10T19:24:36.945Z,138.70
2019-02-10T19:27:21.795Z,138.43
2019-02-10T19:30:15.976Z,135.20
2019-02-10T19:33:08.061Z,144.10
2019-02-10T19:36:10.044Z,141.70
2019-02-10T19:38:53.393Z,125.40
2019-02-10T19:41:39.769Z,134.60
2019-02-10T19:44:29.267Z,132.53
2019-02-10T19:47:20.982Z,142.10
2019-02-10T19:50:23.571Z,137.50
2019-02-10T19:53:20.331Z,139.20
2019-02-10T19:56:15.950Z,152.00
2019-02-10T19:59:01.115Z,141.90
2019-02-10T20:02:06.159Z,140.97
2019-02-10T20:04:52.549Z,144.27
2019-02-10T20:07:43.372Z,159.10
2019-02-10T20:10:42.068Z,139.80
2019-02-10T20:13:39.316Z,150.57
2019-02-10T20:16:22.835Z,144.47
2019-02-10T20:19:15.885Z,158.20
2019-02-10T20:22:11.349Z,148.67
2019-02-10T20:25:00.425Z,160.80
2019-02-10T20:27:50.760Z,143.22
2019-02-10T20:30:51.239Z,161.63
2019-02-10T20:33:34.931Z,148.00
2019-02-10T20:36:33.406Z,151.10
2019-02-10T20:39:31.911Z,132.47
2019-02-10T20:42:41.552Z,156.17
2019-02-10T20:45:30.943Z,149.73
2019-02-10T20:48:24.072Z,151.33
2019-02-10T20:51:33.393Z,158.57
2019-02-10T20:54:24.131Z,152.53
2019-02-10T20:57:19.161Z,129.38
2019-02-10T21:00:08.981Z,123.47
2019-02-10T21:02:46.717Z,107.80
2019-02-10T21:05:42.014Z,113.13
2019-02-10T21:08:34.248Z,117.90
2019-02-10T21:11:25.574Z,113.97
2019-02-10T21:14:14.515Z,111.30
2019-02-10T21:17:07.881Z,120.77
2019-02-10T21:19:58.130Z,115.03
2019-02-10T21:22:51.223Z,123.33
2019-02-10T21:25:52.591Z,122.73
2019-02-10T21:28:34.746Z,119.40
2019-02-10T21:31:19.866Z,127.70
2019-02-10T21:34:28.494Z,126.22
2019-02-10T21:37:13.370Z,119.73
2019-02-10T21:40:16.646Z,125.27
2019-02-10T21:43:02.896Z,134.33
2019-02-10T21:45:53.286Z,128.83
2019-02-10T21:48:32.606Z,122.90
2019-02-10T21:51:05.653Z,117.30
2019-02-10T21:53:39.708Z,129.12
2019-02-10T21:56:12.651Z,121.63
2019-02-10T21:58:44.135Z,123.90
2019-02-10T22:01:17.704Z,113.03
2019-02-10T22:03:51.835Z,111.70
2019-02-10T22:06:24.794Z,105.80
2019-02-10T22:09:00.398Z,111.40
2019-02-10T22:11:32.694Z,114.60
2019-02-10T22:14:04.052Z,100.70
2019-02-10T22:16:37.885Z,98.43
2019-02-10T22:19:11.757Z,95.83
2019-02-10T22:21:46.177Z,94.10
2019-02-10T22:24:18.926Z,101.80
2019-02-10T22:26:51.811Z,92.78
2019-02-10T22:29:23.707Z,101.05
2019-02-10T22:31:54.967Z,85.87
2019-02-10T22:34:27.753Z,91.43
2019-02-10T22:37:01.670Z,87.53
2019-02-10T22:39:33.031Z,72.33
2019-02-10T22:42:07.296Z,72.73
2019-02-10T22:44:39.814Z,72.17
2019-02-10T22:47:15.334Z,68.77
2019-02-10T22:49:47.835Z,59.20
2019-02-10T22:52:19.100Z,53.57
2019-02-10T22:54:51.154Z,33.90
2019-02-10T22:57:22.797Z,22.85
2019-02-10T22:59:54.048Z,13.77
2019-02-10T23:02:27.881Z,10.30
2019-02-10T23:05:01.898Z,6.53
2019-02-10T23:07:33.207Z,4.95
2019-02-10T23:10:05.932Z,2.90
2019-02-10T23:12:37.882Z,1.60
2019-02-10T23:15:11.715Z,0.97
2019-02-10T23:17:44.170Z,0.67
2019-02-10T23:20:16.230Z,0.57
2019-02-10T23:22:49.402Z,0.50
2019-02-10T23:25:20.844Z,0.60
2019-02-10T23:27:54.828Z,0.60
2019-02-10T23:30:28.639Z,0.90
2019-02-10T23:32:59.878Z,0.60
2019-02-10T23:35:34.595Z,0.40
2019-02-10T23:38:06.990Z,0.40
2019-02-10T23:40:41.335Z,0.70
2019-02-10T23:43:15.607Z,0.60
2019-02-10T23:45:49.197Z,0.40
2019-02-10T23:48:20.435Z,0.50
2019-02-10T23:50:54.959Z,1.17
2019-02-10T23:53:27.978Z,0.50
2019-02-10T23:56:02.787Z,0.63
2019-02-10T23:58:35.138Z,0.50
